Time;durP1;ratioP1;P1;durP2;ratioP2;P2;SDS_P1;SDS_P2;PMS_P1;PMS_P2;Temp;Humidity;BMP_temperature;BMP_pressure;BME280_temperature;BME280_humidity;BME280_pressure;Samples;Min_cycle;Max_cycle;Signal;HPM_P1;HPM_P2
2022/06/01 07:29:36;;;;;;;5.20;2.10;;;;;;;21.12;56.16;98797.94;5120919;27;20371;-84
2022/06/01 07:32:02;;;;;;;5.07;2.40;;;;;;;21.43;52.87;98787.97;5110806;28;20123;-84
2022/06/01 07:34:29;;;;;;;7.40;2.50;;;;;;;21.57;53.96;98804.97;5109783;28;20056;-85
2022/06/01 07:43:05;;;;;;;3.60;2.50;;;;;;;21.21;53.28;98797.22;5112888;28;20032;-85
2022/06/01 07:45:12;;;;;;;10.85;2.38;;;;;;;22.03;52.02;98785.88;5120960;28;20082;-86
2022/06/01 07:47:40;;;;;;;3.30;1.80;;;;;;;22.10;51.53;98777.34;5123837;28;20030;-85
2022/06/01 07:50:08;;;;;;;3.38;1.95;;;;;;;21.92;50.31;98773.94;5124482;28;20135;-86
2022/06/01 07:52:35;;;;;;;4.35;2.30;;;;;;;22.19;52.12;98774.88;5122285;28;20048;-85
2022/06/01 07:55:02;;;;;;;17.08;10.55;;;;;;;22.25;50.52;98782.09;5135685;28;20074;-84
2022/06/01 07:57:33;;;;;;;5.03;2.55;;;;;;;22.51;51.73;98794.13;5122920;27;20048;-84
2022/06/01 07:59:59;;;;;;;5.45;2.40;;;;;;;22.00;51.50;98780.88;5117557;27;20039;-84
2022/06/01 08:02:28;;;;;;;6.65;2.40;;;;;;;22.44;51.05;98772.22;5122951;27;20075;-84
2022/06/01 08:04:54;;;;;;;2.97;2.15;;;;;;;22.35;49.02;98782.16;5123335;27;20175;-83
2022/06/01 08:07:21;;;;;;;2.55;2.35;;;;;;;22.12;49.51;98780.66;5115038;27;20047;-83
2022/06/01 08:09:48;;;;;;;6.40;2.53;;;;;;;21.95;53.02;98761.50;5113938;27;20298;-83
2022/06/01 08:14:59;;;;;;;3.47;2.63;;;;;;;22.46;48.17;98777.47;5120014;28;20116;-83
2022/06/01 08:17:27;;;;;;;4.80;2.70;;;;;;;22.25;46.64;98773.78;5107442;28;20044;-83
2022/06/01 08:19:54;;;;;;;7.35;2.80;;;;;;;22.43;48.06;98770.56;5110107;27;20065;-83
2022/06/01 08:22:20;;;;;;;6.13;3.10;;;;;;;22.12;48.18;98772.38;5108624;27;20414;-83
2022/06/01 08:24:47;;;;;;;7.45;2.50;;;;;;;22.41;49.76;98770.00;5120554;27;20429;-84
2022/06/01 08:27:14;;;;;;;6.13;3.08;;;;;;;22.35;47.30;98771.09;5121171;27;20073;-86
2022/06/01 08:29:41;;;;;;;5.63;3.40;;;;;;;22.34;47.82;98776.91;5120700;27;20990;-86
2022/06/01 08:32:08;;;;;;;6.05;2.67;;;;;;;22.63;47.34;98763.41;5120369;27;20138;-85
2022/06/01 08:34:40;;;;;;;6.32;3.50;;;;;;;22.34;47.21;98765.81;5119416;27;20051;-86
2022/06/01 08:37:06;;;;;;;6.78;2.88;;;;;;;22.52;50.35;98781.97;5129778;28;20107;-85
2022/06/01 08:39:34;;;;;;;6.53;3.20;;;;;;;22.29;48.42;98763.84;5124804;28;20142;-85
2022/06/01 08:45:10;;;;;;;8.20;3.13;;;;;;;21.83;48.04;98770.03;5112717;28;20066;-85
2022/06/01 08:47:40;;;;;;;6.20;2.97;;;;;;;21.86;48.23;98768.63;5108231;27;20051;-85
2022/06/01 08:50:16;;;;;;;6.63;3.00;;;;;;;22.08;47.87;98749.91;5106158;27;20055;-84
2022/06/01 08:52:43;;;;;;;5.43;3.08;;;;;;;22.25;45.06;98769.09;5104210;28;20051;-84
2022/06/01 08:55:10;;;;;;;6.18;2.65;;;;;;;22.27;45.40;98780.72;5106748;27;20089;-85
2022/06/01 08:57:46;;;;;;;5.47;2.20;;;;;;;22.31;45.06;98788.47;5104474;27;20044;-85
2022/06/01 09:00:16;;;;;;;7.35;2.00;;;;;;;22.47;41.70;98793.00;5105262;28;20047;-85
2022/06/01 09:02:50;;;;;;;13.15;2.95;;;;;;;22.61;41.01;98787.78;5100782;27;20055;-84
2022/06/01 09:05:24;;;;;;;6.15;1.88;;;;;;;22.56;43.90;98779.47;5103894;27;20069;-85
2022/06/01 09:07:55;;;;;;;10.82;2.00;;;;;;;23.02;42.51;98773.16;5101692;27;20243;-85
2022/06/01 09:10:45;;;;;;;7.55;2.08;;;;;;;23.04;42.61;98785.63;5111967;28;20104;-84
2022/06/01 09:13:19;;;;;;;4.32;2.40;;;;;;;22.66;44.02;98795.25;5107752;28;20111;-83
2022/06/01 09:15:51;;;;;;;3.15;2.00;;;;;;;22.67;41.26;98797.75;5108070;27;20052;-84
2022/06/01 09:18:21;;;;;;;4.78;1.80;;;;;;;22.33;39.71;98794.63;5108661;28;20046;-83
2022/06/01 09:23:37;;;;;;;2.88;1.30;;;;;;;21.26;40.25;98803.88;5106844;27;20238;-84
2022/06/01 09:26:06;;;;;;;5.07;1.50;;;;;;;21.37;41.58;98824.97;5112691;28;20044;-84
2022/06/01 09:28:39;;;;;;;6.00;1.98;;;;;;;21.86;41.07;98808.22;5108953;28;20048;-86
2022/06/01 09:31:20;;;;;;;6.03;2.70;;;;;;;22.07;40.74;98789.78;5109653;28;20058;-85
2022/06/01 09:33:47;;;;;;;6.60;2.30;;;;;;;22.21;40.77;98792.06;5106776;28;20409;-84
2022/06/01 09:36:28;;;;;;;2.28;1.63;;;;;;;22.34;38.83;98776.91;5112348;28;20067;-84
2022/06/01 09:38:56;;;;;;;2.78;1.10;;;;;;;22.47;39.20;98786.63;5106111;28;20054;-83
2022/06/01 09:41:30;;;;;;;5.03;1.15;;;;;;;22.45;38.79;98787.75;5102219;28;20047;-83
2022/06/01 09:43:59;;;;;;;6.18;1.55;;;;;;;22.56;39.43;98757.31;5103070;27;20063;-83
2022/06/01 09:46:33;;;;;;;3.97;1.35;;;;;;;22.79;39.30;98783.66;5106580;28;20071;-84
2022/06/01 09:49:02;;;;;;;3.03;1.67;;;;;;;23.02;39.42;98796.16;5102145;27;20051;-83
2022/06/01 09:51:34;;;;;;;4.03;1.00;;;;;;;23.15;37.50;98795.66;5106571;28;20387;-83
2022/06/01 09:54:16;;;;;;;8.45;1.05;;;;;;;23.41;36.25;98772.63;5102864;27;20054;-83
2022/06/01 09:56:47;;;;;;;2.55;1.30;;;;;;;23.27;35.92;98792.59;5105723;28;20699;-81
2022/06/01 10:08:05;;;;;;;1.88;1.02;;;;;;;23.08;36.31;98783.97;5106668;28;20144;-85
2022/06/01 10:10:31;;;;;;;2.05;1.08;;;;;;;22.77;37.19;98794.19;5108221;28;20042;-82
2022/06/01 10:12:59;;;;;;;4.53;1.42;;;;;;;22.43;35.76;98764.19;5124444;28;20050;-85
2022/06/01 10:15:35;;;;;;;3.55;1.10;;;;;;;23.13;37.66;98803.41;5102710;27;20044;-87
2022/06/01 10:18:07;;;;;;;1.60;1.17;;;;;;;23.03;35.17;98795.03;5105845;27;20043;-82
2022/06/01 10:20:39;;;;;;;1.55;1.20;;;;;;;22.77;36.86;98783.09;5107418;28;20139;-84
2022/06/01 10:23:14;;;;;;;10.85;2.08;;;;;;;23.07;37.71;98767.63;5110397;28;20051;-86
2022/06/01 10:25:46;;;;;;;5.85;1.10;;;;;;;23.31;34.92;98787.34;5108981;28;20388;-85
2022/06/01 10:28:17;;;;;;;4.65;1.33;;;;;;;23.57;35.78;98787.31;5110197;28;20475;-84
2022/06/01 10:30:49;;;;;;;2.97;1.27;;;;;;;23.39;34.93;98778.44;5110660;28;20051;-86
2022/06/01 10:33:21;;;;;;;1.80;0.90;;;;;;;22.95;35.71;98779.78;5107314;28;20052;-84
2022/06/01 10:35:52;;;;;;;3.40;1.30;;;;;;;22.55;35.07;98763.94;5108425;27;20052;-83
2022/06/01 10:38:42;;;;;;;1.88;1.20;;;;;;;22.31;36.78;98785.72;5109488;27;20139;-83
2022/06/01 10:41:17;;;;;;;1.63;1.08;;;;;;;22.12;36.59;98760.47;5111277;28;20918;-83
2022/06/01 10:43:48;;;;;;;1.92;1.10;;;;;;;22.31;38.17;98755.25;5093051;28;20054;-84
2022/06/01 10:46:35;;;;;;;1.90;0.90;;;;;;;22.82;36.56;98746.25;5094048;28;20059;-83
2022/06/01 10:49:17;;;;;;;4.45;1.10;;;;;;;23.12;35.31;98787.03;5118672;27;20747;-84
2022/06/01 10:51:51;;;;;;;1.55;0.90;;;;;;;23.14;32.85;98776.53;5113045;28;20047;-82
2022/06/01 10:54:26;;;;;;;5.90;2.13;;;;;;;23.41;33.94;98758.75;5113058;28;20131;-84
2022/06/01 10:56:53;;;;;;;1.38;1.02;;;;;;;23.16;33.04;98782.63;5112323;28;20048;-84
2022/06/01 10:59:20;;;;;;;3.15;0.70;;;;;;;23.53;33.32;98773.19;5112969;27;20082;-85
2022/06/01 11:02:01;;;;;;;2.55;0.95;;;;;;;23.98;31.71;98763.09;5107747;28;20402;-84
2022/06/01 11:04:59;;;;;;;5.72;1.20;;;;;;;23.96;33.01;98773.63;5104724;28;20052;-83
2022/06/01 11:08:02;;;;;;;3.50;1.10;;;;;;;24.05;33.04;98773.06;5093174;27;20487;-84
2022/06/01 11:10:45;;;;;;;5.20;1.17;;;;;;;24.08;33.21;98772.50;5093504;28;20051;-84
2022/06/01 11:13:31;;;;;;;1.65;0.90;;;;;;;23.50;31.93;98748.75;5102037;28;20043;-83
2022/06/01 11:16:11;;;;;;;1.42;0.65;;;;;;;24.01;31.95;98742.25;5108339;27;20097;-84
2022/06/01 11:18:52;;;;;;;4.85;1.00;;;;;;;24.08;31.54;98751.09;5105572;28;20052;-80
2022/06/01 11:21:25;;;;;;;2.88;0.85;;;;;;;24.18;33.12;98756.63;5109246;28;20043;-83
2022/06/01 11:24:06;;;;;;;3.40;0.90;;;;;;;24.21;31.45;98742.16;5108770;28;20044;-82
2022/06/01 11:26:52;;;;;;;4.65;0.80;;;;;;;24.28;31.82;98755.72;5111014;28;20180;-83
2022/06/01 11:29:46;;;;;;;2.03;0.90;;;;;;;23.96;31.13;98736.72;5113019;28;20055;-85
2022/06/01 11:32:17;;;;;;;2.67;1.00;;;;;;;23.74;29.63;98745.38;5109610;28;20413;-85
2022/06/01 11:34:51;;;;;;;0.88;0.82;;;;;;;23.66;29.63;98744.81;5107287;28;20074;-84
2022/06/01 11:37:23;;;;;;;2.55;0.85;;;;;;;24.08;31.73;98762.22;5100266;28;20456;-85
2022/06/01 11:40:00;;;;;;;4.10;0.93;;;;;;;23.99;29.47;98747.25;5106797;28;20040;-86
2022/06/01 11:42:32;;;;;;;0.95;0.70;;;;;;;24.06;30.90;98753.34;5100599;28;20074;-84
2022/06/01 11:45:02;;;;;;;1.80;0.82;;;;;;;24.20;31.48;98759.94;5110397;28;20085;-86
2022/06/01 11:47:36;;;;;;;1.48;0.90;;;;;;;24.27;30.39;98740.19;5109897;28;20588;-84
2022/06/01 11:50:14;;;;;;;3.05;1.30;;;;;;;24.46;31.58;98767.31;5108098;28;20766;-83
2022/06/01 11:52:46;;;;;;;2.60;0.82;;;;;;;23.99;31.35;98741.72;5099945;28;20134;-84
2022/06/01 11:55:23;;;;;;;0.60;0.60;;;;;;;24.27;30.06;98756.88;5110651;28;20108;-83
2022/06/01 11:57:55;;;;;;;1.10;0.85;;;;;;;24.46;33.17;98747.88;5103828;28;20046;-85
2022/06/01 12:00:32;;;;;;;3.92;0.90;;;;;;;24.93;31.47;98771.50;5103647;28;20051;-84
2022/06/01 12:03:03;;;;;;;1.70;0.95;;;;;;;24.98;32.67;98731.72;5088806;28;20036;-86
2022/06/01 12:05:41;;;;;;;2.40;0.68;;;;;;;25.01;29.75;98731.94;5109399;28;20147;-85
2022/06/01 12:08:22;;;;;;;2.88;0.90;;;;;;;24.35;29.87;98750.69;5107582;28;20044;-79
2022/06/01 12:10:56;;;;;;;3.22;0.98;;;;;;;24.27;29.70;98751.31;5109537;28;20483;-85
2022/06/01 12:13:27;;;;;;;0.80;0.80;;;;;;;24.54;29.47;98750.88;5100384;28;20047;-82
2022/06/01 12:16:09;;;;;;;3.05;1.10;;;;;;;24.51;29.57;98756.16;5111760;28;20047;-83
2022/06/01 12:18:36;;;;;;;2.42;0.82;;;;;;;24.88;29.46;98752.06;5110744;28;20058;-86
2022/06/01 12:21:29;;;;;;;3.00;0.90;;;;;;;25.13;28.71;98733.50;5109763;28;20047;-84
2022/06/01 12:30:04;;;;;;;3.83;0.90;;;;;;;24.63;30.12;98717.78;5109789;28;20062;-86
2022/06/01 12:32:51;;;;;;;6.10;1.10;;;;;;;24.68;30.38;98739.16;5122147;28;20142;-85
2022/06/01 12:35:20;;;;;;;5.53;1.05;;;;;;;24.39;30.70;98745.41;5122297;27;20067;-88
2022/06/01 12:37:57;;;;;;;2.40;1.00;;;;;;;24.29;31.87;98726.03;5133620;27;20058;-87
2022/06/01 12:40:29;;;;;;;1.90;0.90;;;;;;;24.33;32.13;98732.69;5117370;28;20439;-87
2022/06/01 12:42:58;;;;;;;4.05;0.90;;;;;;;24.26;31.31;98716.31;5110399;28;20086;-84
2022/06/01 12:45:37;;;;;;;2.13;0.70;;;;;;;24.61;30.82;98731.13;5096759;28;20050;-85
2022/06/01 12:48:10;;;;;;;2.28;0.85;;;;;;;24.85;30.33;98714.56;5106712;28;20119;-84
2022/06/01 12:50:48;;;;;;;2.17;0.90;;;;;;;25.17;30.07;98720.69;5113188;28;20050;-80
2022/06/01 12:53:17;;;;;;;5.03;1.00;;;;;;;25.18;30.59;98747.38;5112627;28;20048;-85
2022/06/01 12:55:44;;;;;;;3.97;1.00;;;;;;;25.13;30.41;98750.19;5109023;28;20134;-85
2022/06/01 12:58:18;;;;;;;4.78;1.08;;;;;;;24.53;31.54;98728.94;5112777;28;20043;-86
2022/06/01 13:00:50;;;;;;;8.73;1.02;;;;;;;24.31;32.09;98718.22;5114366;28;20052;-85
2022/06/01 13:03:19;;;;;;;4.80;1.20;;;;;;;24.50;32.08;98744.22;5111171;28;20058;-86
2022/06/01 13:05:49;;;;;;;2.65;1.25;;;;;;;24.34;31.70;98735.16;5107567;28;20051;-85
2022/06/01 13:08:21;;;;;;;2.30;0.93;;;;;;;24.24;31.53;98723.25;5117037;28;20059;-89
2022/06/01 13:10:48;;;;;;;1.73;1.15;;;;;;;24.52;32.58;98736.47;5113727;28;20127;-86
2022/06/01 13:13:16;;;;;;;6.75;1.25;;;;;;;24.59;32.42;98707.53;5112572;28;20429;-82
2022/06/01 13:15:53;;;;;;;6.38;1.00;;;;;;;24.62;31.54;98713.34;5104916;28;20128;-86
2022/06/01 13:18:27;;;;;;;2.55;1.10;;;;;;;25.10;32.27;98726.59;5106284;28;20071;-88
2022/06/01 13:20:59;;;;;;;3.25;1.08;;;;;;;25.24;30.62;98708.09;5111116;28;20036;-88
2022/06/01 13:23:30;;;;;;;3.35;0.90;;;;;;;25.46;31.47;98731.00;5105210;28;20047;-87
2022/06/01 13:26:01;;;;;;;2.03;0.85;;;;;;;25.67;30.01;98699.06;5114106;28;20059;-88
2022/06/01 13:28:28;;;;;;;1.85;0.90;;;;;;;25.32;29.17;98731.69;5113233;28;20191;-82
2022/06/01 13:30:56;;;;;;;0.70;0.70;;;;;;;25.53;29.77;98709.22;5106860;28;20044;-86
2022/06/01 13:33:30;;;;;;;3.80;1.15;;;;;;;25.34;29.47;98695.25;5104487;28;20134;-85
2022/06/01 13:35:59;;;;;;;3.53;1.33;;;;;;;24.89;29.91;98712.03;5113297;28;20048;-86
2022/06/01 13:38:37;;;;;;;9.07;1.10;;;;;;;24.95;30.78;98715.63;5112485;28;20062;-84
2022/06/01 13:41:09;;;;;;;14.55;1.20;;;;;;;25.24;29.99;98721.19;5110232;28;20518;-86
2022/06/01 13:43:41;;;;;;;2.58;1.23;;;;;;;25.14;29.59;98705.44;5112321;28;20418;-82
2022/06/01 13:46:11;;;;;;;2.92;1.00;;;;;;;25.53;30.96;98696.13;5114378;28;20055;-87
2022/06/01 13:48:44;;;;;;;0.90;0.75;;;;;;;25.46;29.27;98717.09;5112120;28;20135;-87
2022/06/01 13:51:14;;;;;;;2.50;0.93;;;;;;;25.41;30.97;98707.69;5101045;28;20475;-88
2022/06/01 13:53:44;;;;;;;4.38;1.30;;;;;;;24.78;30.22;98688.22;5091520;28;20048;-84
2022/06/01 13:56:23;;;;;;;2.33;0.80;;;;;;;24.43;30.65;98695.66;5103185;28;20075;-87
2022/06/01 13:58:55;;;;;;;2.00;1.38;;;;;;;24.58;29.80;98711.41;5111490;28;20047;-83
2022/06/01 14:01:34;;;;;;;4.13;1.17;;;;;;;24.83;29.77;98685.41;5100546;28;20060;-83
2022/06/01 14:04:13;;;;;;;3.95;1.05;;;;;;;25.09;30.59;98706.28;5090002;28;20052;-84
2022/06/01 14:06:42;;;;;;;4.53;2.10;;;;;;;25.15;29.50;98700.69;5093164;28;20637;-85
2022/06/01 14:09:12;;;;;;;4.25;0.90;;;;;;;24.84;29.77;98703.72;5109235;28;20399;-86
2022/06/01 14:11:39;;;;;;;3.25;1.08;;;;;;;24.90;29.15;98708.13;5112690;28;20054;-87
2022/06/01 14:14:11;;;;;;;2.10;0.93;;;;;;;24.87;30.78;98700.34;5112622;28;20055;-91
2022/06/01 14:16:45;;;;;;;3.78;1.05;;;;;;;24.90;30.98;98686.72;5111128;28;20043;-87
2022/06/01 14:19:14;;;;;;;3.95;0.82;;;;;;;24.97;30.87;98697.50;5112856;28;20058;-88
2022/06/01 14:21:41;;;;;;;1.67;1.00;;;;;;;24.86;29.77;98670.91;5112572;28;20061;-86
2022/06/01 14:24:08;;;;;;;3.20;1.08;;;;;;;24.70;29.46;98687.69;5111279;28;20138;-83
2022/06/01 14:29:18;;;;;;;2.50;1.00;;;;;;;25.19;30.94;98665.63;5112351;28;20051;-88
2022/06/01 14:31:45;;;;;;;3.38;0.95;;;;;;;25.08;29.77;98671.28;5112390;28;20134;-88
2022/06/01 14:34:16;;;;;;;4.50;1.25;;;;;;;25.05;29.50;98669.09;5111077;28;20270;-88
2022/06/01 14:36:43;;;;;;;3.22;0.93;;;;;;;25.18;29.07;98686.19;5105278;28;20573;-85
2022/06/01 14:39:10;;;;;;;2.50;0.88;;;;;;;25.30;29.85;98663.59;5091616;28;20048;-84
2022/06/01 14:41:39;;;;;;;7.38;1.00;;;;;;;25.70;30.11;98673.44;5092213;28;20048;-88
2022/06/01 14:44:09;;;;;;;8.38;1.20;;;;;;;25.83;30.71;98679.41;5100223;28;20053;-90
2022/06/01 14:46:36;;;;;;;2.00;0.85;;;;;;;25.68;29.16;98658.13;5112169;28;20139;-86
2022/06/01 14:49:04;;;;;;;2.88;0.90;;;;;;;24.90;29.23;98680.31;5111616;28;20142;-85
2022/06/01 14:51:34;;;;;;;1.95;0.90;;;;;;;24.63;29.96;98662.22;5110007;28;20039;-86
2022/06/01 14:54:02;;;;;;;2.15;0.90;;;;;;;24.76;30.02;98687.69;5110902;28;20135;-87
2022/06/01 14:56:29;;;;;;;5.65;1.30;;;;;;;24.95;30.02;98665.56;5106704;28;20529;-88
2022/06/01 14:59:00;;;;;;;1.75;0.90;;;;;;;25.22;30.24;98670.59;5108380;28;20051;-86
2022/06/01 15:01:31;;;;;;;1.35;0.70;;;;;;;25.37;30.11;98647.38;5105502;28;20066;-88
2022/06/01 15:04:00;;;;;;;5.35;0.90;;;;;;;25.71;28.97;98677.03;5110392;28;20073;-84
2022/06/01 15:06:27;;;;;;;2.07;1.00;;;;;;;24.74;29.59;98674.91;5106083;28;20051;-84
2022/06/01 15:08:55;;;;;;;4.03;1.00;;;;;;;24.61;30.14;98677.50;5108621;28;20146;-84
2022/06/01 15:11:23;;;;;;;3.08;0.95;;;;;;;24.43;30.42;98690.09;5110429;28;20163;-87
2022/06/01 15:13:50;;;;;;;2.67;0.90;;;;;;;24.18;30.63;98676.09;5111004;28;20056;-86
2022/06/01 15:16:19;;;;;;;2.75;0.95;;;;;;;24.45;31.14;98687.84;5108507;28;20039;-86
2022/06/01 15:18:48;;;;;;;8.63;0.90;;;;;;;24.03;30.72;98682.56;5108654;28;20048;-84
2022/06/01 15:21:16;;;;;;;2.33;1.17;;;;;;;23.82;31.37;98672.63;5111254;28;20074;-86
2022/06/01 15:23:47;;;;;;;1.83;0.93;;;;;;;23.95;30.93;98677.59;5110917;28;20397;-85
2022/06/01 15:26:15;;;;;;;3.58;1.13;;;;;;;24.28;30.18;98677.97;5110687;28;20044;-84
2022/06/01 15:28:43;;;;;;;4.95;1.00;;;;;;;24.62;29.91;98677.22;5104612;28;20098;-85
2022/06/01 15:39:33;;;;;;;6.93;0.93;;;;;;;25.42;31.04;98673.16;5105897;28;20094;-88
2022/06/01 15:42:04;;;;;;;3.60;0.85;;;;;;;24.89;30.54;98654.47;5112920;28;20075;-86
2022/06/01 15:44:31;;;;;;;7.10;1.13;;;;;;;25.03;30.66;98679.66;5109595;28;20062;-87
2022/06/01 15:46:58;;;;;;;1.85;0.88;;;;;;;24.10;30.95;98660.00;5111211;28;20059;-80
2022/06/01 15:49:28;;;;;;;1.63;0.70;;;;;;;24.54;30.87;98686.97;5112308;28;20056;-86
2022/06/01 15:51:58;;;;;;;1.80;1.00;;;;;;;24.86;30.33;98674.53;5110279;28;20056;-86
2022/06/01 15:54:25;;;;;;;;;;;;;;;25.23;30.18;98683.34;5116098;28;20043;-84
2022/06/01 15:56:53;;;;;;;1.27;1.00;;;;;;;25.12;29.63;98676.25;5115906;28;20007;-85
2022/06/01 15:59:21;;;;;;;2.63;0.70;;;;;;;25.28;29.68;98655.50;5115855;28;20055;-83
2022/06/01 16:01:48;;;;;;;1.02;0.70;;;;;;;25.51;29.32;98666.97;5113890;28;20048;-84
2022/06/01 16:04:16;;;;;;;3.13;1.00;;;;;;;25.33;29.40;98649.91;5096161;28;20175;-85
2022/06/01 16:06:42;;;;;;;1.05;0.93;;;;;;;25.04;30.54;98677.72;5114372;28;20102;-85
2022/06/01 16:09:10;;;;;;;2.17;0.80;;;;;;;25.08;29.87;98690.75;5114583;28;20051;-84
2022/06/01 16:11:37;;;;;;;1.02;0.73;;;;;;;25.00;30.21;98679.41;5107000;28;20040;-85
2022/06/01 16:14:06;;;;;;;3.63;0.80;;;;;;;24.90;30.65;98658.06;5115271;28;20126;-87
2022/06/01 16:16:37;;;;;;;8.90;1.05;;;;;;;25.08;29.96;98692.66;5115475;28;20047;-85
2022/06/01 16:19:05;;;;;;;2.25;0.70;;;;;;;24.72;29.53;98690.19;5114452;28;20131;-85
2022/06/01 16:21:33;;;;;;;2.60;0.80;;;;;;;24.12;30.65;98676.41;5109854;28;20056;-85
2022/06/01 16:24:00;;;;;;;0.93;0.60;;;;;;;24.07;30.51;98693.09;5108424;28;20494;-83
2022/06/01 16:26:27;;;;;;;3.25;1.13;;;;;;;24.30;31.61;98680.44;5114852;28;20308;-85
2022/06/01 16:28:54;;;;;;;1.00;0.90;;;;;;;24.50;30.42;98687.84;5114602;28;20048;-83
2022/06/01 16:31:20;;;;;;;3.90;1.02;;;;;;;24.74;30.97;98694.34;5105818;28;20222;-85
2022/06/01 16:33:50;;;;;;;2.13;0.95;;;;;;;24.41;30.38;98650.69;5114693;28;20044;-86
2022/06/01 16:36:29;;;;;;;;;;;;;;;24.42;31.25;98694.84;5114883;28;20419;-85
2022/06/01 16:38:56;;;;;;;3.92;0.95;;;;;;;24.42;30.53;98671.78;5113405;28;19954;-85
2022/06/01 16:41:23;;;;;;;4.72;1.00;;;;;;;24.30;30.96;98663.78;5115127;28;20071;-85
2022/06/01 16:43:50;;;;;;;2.85;0.80;;;;;;;24.65;30.51;98676.63;5114963;28;20059;-85
2022/06/01 16:46:17;;;;;;;2.60;1.05;;;;;;;24.43;30.60;98687.31;5114746;28;20058;-86
2022/06/01 16:48:44;;;;;;;1.85;0.82;;;;;;;24.49;30.74;98703.66;5114269;28;20100;-87
2022/06/01 16:51:14;;;;;;;2.50;0.95;;;;;;;24.24;30.80;98689.94;5110715;28;20092;-86
2022/06/01 16:53:41;;;;;;;1.90;0.60;;;;;;;24.04;30.42;98688.94;5113560;28;20420;-85
2022/06/01 16:56:08;;;;;;;2.35;1.33;;;;;;;24.32;31.08;98701.28;5114511;28;20063;-85
2022/06/01 16:58:35;;;;;;;1.60;1.38;;;;;;;24.31;31.14;98710.72;5113921;28;20052;-85
2022/06/01 17:01:03;;;;;;;5.38;0.80;;;;;;;24.23;30.90;98710.50;5112800;28;20040;-85
2022/06/01 17:03:29;;;;;;;2.95;1.10;;;;;;;24.01;30.75;98706.16;5108425;28;20058;-83
2022/06/01 17:05:56;;;;;;;0.95;0.80;;;;;;;24.06;31.97;98691.41;5103066;28;20048;-89
2022/06/01 17:08:24;;;;;;;0.88;0.80;;;;;;;23.86;31.13;98701.50;5114158;28;20055;-83
2022/06/01 17:10:51;;;;;;;3.80;0.60;;;;;;;23.84;31.74;98706.47;5113301;28;20043;-86
2022/06/01 17:13:19;;;;;;;1.73;0.90;;;;;;;23.28;31.72;98721.34;5113281;28;20134;-87
2022/06/01 17:15:46;;;;;;;1.92;0.70;;;;;;;23.30;31.46;98708.00;5114325;28;20422;-84
2022/06/01 17:18:13;;;;;;;2.95;0.90;;;;;;;22.97;32.27;98705.53;5113907;28;20050;-84
2022/06/01 17:20:42;;;;;;;4.38;1.23;;;;;;;22.87;32.76;98713.84;5112733;28;20051;-85
2022/06/01 17:23:10;;;;;;;0.80;0.75;;;;;;;22.73;32.88;98716.34;5111070;28;20090;-84
2022/06/01 17:25:38;;;;;;;2.55;0.75;;;;;;;22.60;33.64;98708.56;5112972;28;20051;-85
2022/06/01 17:28:06;;;;;;;1.38;0.73;;;;;;;22.68;33.29;98708.00;5105925;28;20059;-85
2022/06/01 17:30:34;;;;;;;6.60;1.05;;;;;;;22.43;33.11;98717.09;5111972;28;20054;-85
2022/06/01 17:33:01;;;;;;;3.35;1.08;;;;;;;22.43;33.40;98709.66;5113010;28;20100;-85
2022/06/01 17:35:32;;;;;;;1.48;0.95;;;;;;;22.49;33.71;98720.72;5113441;28;20490;-85
2022/06/01 17:38:00;;;;;;;1.25;0.90;;;;;;;22.62;33.97;98723.78;5113524;28;20055;-85
2022/06/01 17:40:27;;;;;;;2.85;0.93;;;;;;;22.43;32.37;98730.94;5112630;28;20051;-86
2022/06/01 17:42:56;;;;;;;1.08;0.80;;;;;;;22.33;34.08;98737.31;5104325;28;20039;-87
2022/06/01 17:45:23;;;;;;;2.75;0.80;;;;;;;22.20;33.15;98738.59;5092854;28;20058;-84
2022/06/01 17:47:51;;;;;;;3.75;0.93;;;;;;;21.96;33.44;98732.72;5110649;28;20050;-85
2022/06/01 17:50:18;;;;;;;0.70;0.50;;;;;;;22.12;33.64;98750.22;5113103;28;20056;-85
2022/06/01 17:52:48;;;;;;;1.23;1.00;;;;;;;21.89;33.75;98726.59;5112121;28;20055;-83
2022/06/01 17:55:15;;;;;;;5.20;0.90;;;;;;;21.86;33.43;98744.56;5113364;28;20044;-88
2022/06/01 17:57:42;;;;;;;4.90;0.98;;;;;;;21.91;33.64;98743.75;5112219;28;20086;-84
2022/06/01 18:00:13;;;;;;;4.88;0.70;;;;;;;21.83;33.70;98741.50;5110708;28;20048;-84
2022/06/01 18:02:40;;;;;;;3.60;0.68;;;;;;;21.63;34.18;98720.09;5092293;28;20054;-85
2022/06/01 18:05:09;;;;;;;8.73;2.58;;;;;;;21.62;34.32;98744.16;5111026;28;20052;-85
2022/06/01 18:07:36;;;;;;;5.75;1.27;;;;;;;21.51;34.42;98739.66;5108127;28;20406;-84
2022/06/01 18:10:02;;;;;;;8.52;0.85;;;;;;;21.65;34.40;98763.00;5101868;28;20048;-85
2022/06/01 18:12:29;;;;;;;1.05;0.68;;;;;;;21.71;35.23;98763.88;5111080;28;20068;-85
2022/06/01 18:14:56;;;;;;;0.80;0.70;;;;;;;21.49;34.07;98741.84;5112889;28;20048;-82
2022/06/01 18:17:24;;;;;;;6.53;0.90;;;;;;;21.41;34.37;98754.25;5111496;28;20051;-84
2022/06/01 18:19:51;;;;;;;2.03;0.68;;;;;;;21.46;34.92;98758.97;5090489;28;20096;-84
2022/06/01 18:22:18;;;;;;;0.85;0.70;;;;;;;21.43;35.38;98765.03;5105691;28;20054;-81
2022/06/01 18:24:45;;;;;;;2.92;0.75;;;;;;;21.42;35.44;98772.47;5110061;28;20039;-82
2022/06/01 18:27:11;;;;;;;1.60;0.75;;;;;;;21.24;35.85;98775.66;5114207;28;20126;-83
2022/06/01 18:29:38;;;;;;;1.23;0.80;;;;;;;21.18;36.25;98781.16;5114576;28;20055;-84
2022/06/01 18:32:05;;;;;;;2.85;0.82;;;;;;;20.89;36.26;98755.75;5101276;28;20067;-84
2022/06/01 18:34:33;;;;;;;6.53;1.20;;;;;;;20.86;36.40;98751.59;5103586;28;20433;-84
2022/06/01 18:37:00;;;;;;;8.15;1.33;;;;;;;21.00;36.40;98778.78;5117196;28;20085;-84
2022/06/01 18:39:26;;;;;;;1.75;0.90;;;;;;;20.99;36.36;98774.38;5125376;28;20043;-84
2022/06/01 18:41:55;;;;;;;1.65;0.80;;;;;;;20.76;36.84;98768.09;5125808;28;20051;-84
2022/06/01 18:44:23;;;;;;;1.42;0.60;;;;;;;20.48;37.32;98753.41;5103069;28;20058;-84
2022/06/01 18:46:49;;;;;;;3.35;0.90;;;;;;;;;;5108950;28;20052;-84
2022/06/01 18:49:16;;;;;;;3.80;0.80;;;;;;;20.36;37.63;98773.97;5101488;28;20071;-84
2022/06/01 18:51:47;;;;;;;1.90;1.00;;;;;;;20.33;37.01;98764.28;5109072;28;20048;-84
2022/06/01 18:54:16;;;;;;;3.05;0.77;;;;;;;20.30;37.47;98793.22;5104968;28;20048;-84
2022/06/01 18:56:43;;;;;;;2.53;0.90;;;;;;;20.10;37.46;98781.97;5106754;28;20051;-84
2022/06/01 19:01:32;;;;;;;2.65;0.93;;;;;;;19.79;37.87;98760.28;5105538;28;20047;-84
2022/06/01 19:01:57;;;;;;;2.60;1.00;;;;;;;19.84;38.70;98789.03;5098948;28;20478;-84
2022/06/01 19:04:24;;;;;;;1.75;0.82;;;;;;;19.78;38.42;98777.09;5106536;28;20077;-84
2022/06/01 19:06:54;;;;;;;1.42;0.80;;;;;;;19.79;38.79;98787.88;5099143;28;20052;-84
2022/06/01 19:09:23;;;;;;;1.45;0.90;;;;;;;19.70;40.06;98764.56;5096072;28;20057;-85
2022/06/01 19:11:49;;;;;;;1.85;0.80;;;;;;;19.51;39.97;98788.84;5108614;28;20123;-84
2022/06/01 19:14:16;;;;;;;2.60;1.00;;;;;;;19.62;40.79;98801.69;5107072;28;20058;-84
2022/06/01 19:16:45;;;;;;;1.23;0.90;;;;;;;19.55;43.25;98789.16;5096214;28;20074;-84
2022/06/01 19:19:20;;;;;;;2.63;0.93;;;;;;;19.30;42.05;98773.06;5094236;28;20051;-84
2022/06/01 19:21:46;;;;;;;3.50;0.90;;;;;;;19.32;44.47;98791.03;5105316;28;20134;-84
2022/06/01 19:24:15;;;;;;;0.95;0.82;;;;;;;19.18;43.55;98785.00;5101601;28;20087;-84
2022/06/01 19:26:45;;;;;;;0.88;0.80;;;;;;;18.93;44.77;98786.25;5098432;28;20051;-84
2022/06/01 19:29:16;;;;;;;2.33;1.00;;;;;;;18.74;46.07;98793.88;5105351;28;20052;-84
2022/06/01 19:31:43;;;;;;;3.25;0.80;;;;;;;18.57;46.85;98804.81;5104068;28;20051;-83
2022/06/01 19:34:10;;;;;;;3.33;1.23;;;;;;;18.35;48.01;98796.44;5106100;28;20056;-84
2022/06/01 19:44:54;;;;;;;2.90;1.58;;;;;;;17.82;52.26;98853.31;5106258;28;20070;-84
2022/06/01 19:47:21;;;;;;;4.35;2.25;;;;;;;17.76;51.84;98846.00;5102339;28;20083;-84
2022/06/01 19:49:47;;;;;;;3.85;1.50;;;;;;;17.50;51.46;98830.84;5095236;28;20044;-84
2022/06/01 19:52:14;;;;;;;2.25;1.25;;;;;;;17.58;52.14;98855.22;5107303;28;20070;-84
2022/06/01 19:54:42;;;;;;;0.73;0.65;;;;;;;17.47;52.01;98872.53;5109282;28;20047;-84
2022/06/01 19:57:09;;;;;;;2.20;0.85;;;;;;;17.36;53.30;98859.63;5107803;28;20491;-83
2022/06/01 19:59:36;;;;;;;2.63;1.00;;;;;;;17.27;53.88;98867.38;5102280;28;20407;-84
2022/06/01 20:02:04;;;;;;;1.38;0.93;;;;;;;17.03;55.02;98850.03;5107040;28;20894;-83
2022/06/01 20:04:31;;;;;;;1.45;1.05;;;;;;;16.87;54.55;98862.50;5102419;28;20056;-82
2022/06/01 20:06:58;;;;;;;4.05;0.98;;;;;;;16.86;56.33;98853.41;5098355;28;20105;-82